createdAt,value
2024-04-12T00:00:44.703Z,11.11
2024-04-12T00:03:20.882Z,11.02
2024-04-12T00:06:12.255Z,10.84
2024-04-12T00:08:58.440Z,10.57
2024-04-12T00:11:32.964Z,10.35
2024-04-12T00:17:18.629Z,10.20
2024-04-12T00:20:08.419Z,10.19
2024-04-12T00:22:45.884Z,10.16
2024-04-12T00:25:26.349Z,10.12
2024-04-12T00:28:08.548Z,10.06
2024-04-12T00:30:40.225Z,9.95
2024-04-12T00:33:13.339Z,9.82
2024-04-12T00:35:48.555Z,9.71
2024-04-12T00:38:32.604Z,9.68
2024-04-12T00:41:19.745Z,9.69
2024-04-12T00:44:04.676Z,9.72
2024-04-12T00:46:53.762Z,9.72
2024-04-12T00:49:32.067Z,9.68
2024-04-12T00:52:08.933Z,9.61
2024-04-12T00:54:55.029Z,9.54
2024-04-12T00:57:55.315Z,9.48
2024-04-12T01:00:36.581Z,9.48
2024-04-12T01:03:17.001Z,9.49
2024-04-12T01:06:02.167Z,9.53
2024-04-12T01:08:38.473Z,9.50
2024-04-12T01:11:22.751Z,9.46
2024-04-12T01:14:04.293Z,9.43
2024-04-12T01:16:44.138Z,9.39
2024-04-12T01:19:34.522Z,9.36
2024-04-12T01:22:27.802Z,9.32
2024-04-12T01:25:31.757Z,9.28
2024-04-12T01:28:05.528Z,9.28
2024-04-12T01:30:42.604Z,9.26
2024-04-12T01:33:31.081Z,9.23
2024-04-12T01:36:25.515Z,9.20
2024-04-12T01:39:23.878Z,9.13
2024-04-12T01:42:10.761Z,9.05
2024-04-12T01:45:10.181Z,8.97
2024-04-12T01:47:47.553Z,8.90
2024-04-12T01:50:25.938Z,8.84
2024-04-12T01:53:03.874Z,8.82
2024-04-12T01:55:48.506Z,8.77
2024-04-12T01:58:24.907Z,8.74
2024-04-12T02:01:12.150Z,8.73
2024-04-12T02:03:53.766Z,8.72
2024-04-12T02:06:31.282Z,8.73
2024-04-12T02:09:15.252Z,8.73
2024-04-12T02:12:00.876Z,8.71
2024-04-12T02:14:33.926Z,8.74
2024-04-12T02:17:21.272Z,8.77
2024-04-12T02:20:11.357Z,8.80
2024-04-12T02:22:53.108Z,8.81
2024-04-12T02:25:59.581Z,8.81
2024-04-12T02:28:30.638Z,8.80
2024-04-12T02:31:19.792Z,8.79
2024-04-12T02:33:56.364Z,8.78
2024-04-12T02:36:38.058Z,8.76
2024-04-12T02:39:14.990Z,8.75
2024-04-12T02:42:29.730Z,8.77
2024-04-12T02:45:13.114Z,8.79
2024-04-12T02:48:13.013Z,8.78
2024-04-12T02:50:58.230Z,8.75
2024-04-12T02:53:33.970Z,8.76
2024-04-12T02:56:38.237Z,8.77
2024-04-12T02:59:21.576Z,8.78
2024-04-12T03:02:00.721Z,8.80
2024-04-12T03:04:34.286Z,8.86
2024-04-12T03:07:27.290Z,8.93
2024-04-12T03:10:07.907Z,8.97
2024-04-12T03:12:50.396Z,9.02
2024-04-12T03:15:55.439Z,9.09
2024-04-12T03:18:26.748Z,9.16
2024-04-12T03:21:08.525Z,9.24
2024-04-12T03:24:08.090Z,9.34
2024-04-12T03:26:40.040Z,9.44
2024-04-12T03:29:13.725Z,9.53
2024-04-12T03:31:43.303Z,9.64
2024-04-12T03:37:27.348Z,9.85
2024-04-12T03:40:30.642Z,9.99
2024-04-12T03:43:24.219Z,10.14
2024-04-12T03:46:21.882Z,10.27
2024-04-12T03:49:05.141Z,10.42
2024-04-12T03:51:39.725Z,10.57
2024-04-12T03:54:57.567Z,10.74
2024-04-12T03:57:42.196Z,10.94
2024-04-12T04:00:52.044Z,11.08
2024-04-12T04:03:34.881Z,11.23
2024-04-12T04:06:13.229Z,11.35
2024-04-12T04:08:58.543Z,11.44
2024-04-12T04:11:32.190Z,11.52
2024-04-12T04:14:08.458Z,11.57
2024-04-12T04:16:57.246Z,11.65
2024-04-12T04:19:37.375Z,11.78
2024-04-12T04:22:41.171Z,11.98
2024-04-12T04:25:23.939Z,12.31
2024-04-12T04:27:58.013Z,12.69
2024-04-12T04:30:37.446Z,13.13
2024-04-12T04:33:16.544Z,13.56
2024-04-12T04:36:14.769Z,13.97
2024-04-12T04:38:53.794Z,14.42
2024-04-12T04:41:38.191Z,14.56
2024-04-12T04:44:35.052Z,14.59
2024-04-12T04:47:35.077Z,14.65
2024-04-12T04:50:21.707Z,15.00
2024-04-12T04:53:10.104Z,15.50
2024-04-12T04:56:02.558Z,16.08
2024-04-12T04:58:47.695Z,16.61
2024-04-12T05:01:34.687Z,17.01
2024-04-12T05:04:18.664Z,17.34
2024-04-12T05:06:58.850Z,17.50
2024-04-12T05:09:51.512Z,17.55
2024-04-12T05:12:34.271Z,17.62
2024-04-12T05:15:24.775Z,17.61
2024-04-12T05:18:02.773Z,17.61
2024-04-12T05:20:56.825Z,17.66
2024-04-12T05:23:42.791Z,17.71
2024-04-12T05:26:18.315Z,17.75
2024-04-12T05:29:00.331Z,17.77
2024-04-12T05:31:47.517Z,17.77
2024-04-12T05:34:36.989Z,17.72
2024-04-12T05:37:12.127Z,17.68
2024-04-12T05:40:02.180Z,17.71
2024-04-12T05:42:47.705Z,17.76
2024-04-12T05:45:47.736Z,17.79
2024-04-12T05:48:28.630Z,17.84
2024-04-12T05:51:02.752Z,17.86
2024-04-12T05:54:05.445Z,17.88
2024-04-12T05:57:19.420Z,17.98
2024-04-12T05:59:56.746Z,17.98
2024-04-12T06:02:49.911Z,17.94
2024-04-12T06:05:32.227Z,17.87
2024-04-12T06:08:14.041Z,17.86
2024-04-12T06:10:51.173Z,17.88
2024-04-12T06:13:27.334Z,17.88
2024-04-12T06:15:55.950Z,17.86
2024-04-12T06:18:36.656Z,17.87
2024-04-12T06:21:25.963Z,17.96
2024-04-12T06:24:01.005Z,18.08
2024-04-12T06:27:10.795Z,18.17
2024-04-12T06:30:06.620Z,18.25
2024-04-12T06:32:37.641Z,18.34
2024-04-12T06:35:35.203Z,18.41
2024-04-12T06:38:27.316Z,18.51
2024-04-12T06:41:04.659Z,18.61
2024-04-12T06:43:56.974Z,18.61
2024-04-12T06:46:48.805Z,18.59
2024-04-12T06:49:38.385Z,18.63
2024-04-12T06:52:42.944Z,18.64
2024-04-12T06:55:31.681Z,18.64
2024-04-12T06:58:23.281Z,18.62
2024-04-12T07:01:25.045Z,18.59
2024-04-12T07:04:11.865Z,18.52
2024-04-12T07:07:25.119Z,18.48
2024-04-12T07:10:22.836Z,18.43
2024-04-12T07:12:59.713Z,18.47
2024-04-12T07:15:35.787Z,18.55
2024-04-12T07:18:42.236Z,18.66
2024-04-12T07:21:25.765Z,18.79
2024-04-12T07:27:47.643Z,19.23
2024-04-12T07:30:45.305Z,19.47
2024-04-12T07:33:53.649Z,19.64
2024-04-12T07:36:36.915Z,19.84
2024-04-12T07:39:16.448Z,19.93
2024-04-12T07:42:10.599Z,20.01
2024-04-12T07:44:50.626Z,20.11
2024-04-12T07:47:56.513Z,20.17
2024-04-12T07:51:06.844Z,20.40
2024-04-12T07:53:52.103Z,20.65
2024-04-12T07:56:45.992Z,20.80
2024-04-12T07:59:50.969Z,20.93
2024-04-12T08:02:57.664Z,21.00
2024-04-12T08:05:58.575Z,21.02
2024-04-12T08:09:07.721Z,21.08
2024-04-12T08:12:00.910Z,21.10
2024-04-12T08:15:10.251Z,21.08
2024-04-12T08:18:01.400Z,21.12
2024-04-12T08:20:58.983Z,21.16
2024-04-12T08:23:44.397Z,21.23
2024-04-12T08:26:41.193Z,21.29
2024-04-12T08:29:29.566Z,21.41
2024-04-12T08:32:39.304Z,21.61
2024-04-12T08:35:40.555Z,21.66
2024-04-12T08:38:31.406Z,21.76
2024-04-12T08:41:17.972Z,21.86
2024-04-12T08:44:14.101Z,21.86
2024-04-12T08:46:55.297Z,21.80
2024-04-12T08:49:50.534Z,21.84
2024-04-12T08:52:51.844Z,21.99
2024-04-12T08:55:31.983Z,22.13
2024-04-12T08:58:38.395Z,22.14
2024-04-12T09:01:19.902Z,22.17
2024-04-12T09:04:37.377Z,22.20
2024-04-12T09:07:16.060Z,22.31
2024-04-12T09:10:33.833Z,22.44
2024-04-12T09:16:12.272Z,22.46
2024-04-12T09:18:53.432Z,22.53
2024-04-12T09:22:04.750Z,22.56
2024-04-12T09:35:15.711Z,22.69
2024-04-12T09:38:13.555Z,22.64
2024-04-12T09:45:16.187Z,22.69
2024-04-12T09:48:27.622Z,22.99
2024-04-12T09:51:29.016Z,23.21
2024-04-12T09:54:59.468Z,23.22
2024-04-12T09:58:18.531Z,23.16
2024-04-12T10:01:31.970Z,23.18
2024-04-12T10:04:21.238Z,23.22
2024-04-12T10:10:26.429Z,23.36
2024-04-12T10:13:38.004Z,23.27
2024-04-12T10:17:04.509Z,23.19
2024-04-12T10:20:44.120Z,23.22
2024-04-12T10:24:33.363Z,23.30
2024-04-12T10:31:58.112Z,23.26
2024-04-12T10:35:03.752Z,23.35
2024-04-12T10:37:45.951Z,23.48
2024-04-12T10:40:25.090Z,23.58
2024-04-12T10:43:18.007Z,23.57
2024-04-12T10:46:04.708Z,23.56
2024-04-12T10:48:45.951Z,23.48
2024-04-12T10:51:30.281Z,23.46
2024-04-12T10:54:46.720Z,23.49
2024-04-12T10:57:51.833Z,23.52
2024-04-12T11:00:55.269Z,23.66
2024-04-12T11:04:24.953Z,23.49
2024-04-12T11:07:13.707Z,23.42
2024-04-12T11:10:26.211Z,23.47
2024-04-12T11:13:23.896Z,23.54
2024-04-12T11:16:55.503Z,23.58
2024-04-12T11:20:06.635Z,23.38
2024-04-12T11:23:04.895Z,23.08
2024-04-12T11:26:05.548Z,22.82
2024-04-12T11:29:06.849Z,22.70
2024-04-12T11:31:41.948Z,22.60
2024-04-12T11:34:41.476Z,22.52
2024-04-12T11:37:31.343Z,22.39
2024-04-12T11:40:33.640Z,22.33
2024-04-12T11:47:10.880Z,22.54
2024-04-12T11:50:24.255Z,22.59
2024-04-12T11:53:40.603Z,22.58
2024-04-12T11:57:04.238Z,22.53
2024-04-12T11:59:59.815Z,22.64
2024-04-12T12:02:54.728Z,22.72
2024-04-12T12:05:38.983Z,22.78
2024-04-12T12:08:56.298Z,22.93
2024-04-12T12:11:53.977Z,23.18
2024-04-12T12:15:31.545Z,23.36
2024-04-12T12:18:49.326Z,23.35
2024-04-12T12:22:21.894Z,23.24
2024-04-12T12:25:45.082Z,22.83
2024-04-12T12:29:31.422Z,22.57
2024-04-12T12:34:29.502Z,22.41
2024-04-12T12:37:30.813Z,22.45
2024-04-12T12:40:44.078Z,22.56
2024-04-12T12:47:16.712Z,22.55
2024-04-12T12:50:33.408Z,22.28
2024-04-12T12:53:12.705Z,22.25
2024-04-12T12:56:24.287Z,22.41
2024-04-12T12:59:12.983Z,22.55
2024-04-12T13:02:04.532Z,22.66
2024-04-12T13:04:58.491Z,22.83
2024-04-12T13:07:57.588Z,22.92
2024-04-12T13:11:07.956Z,23.07
2024-04-12T13:14:20.162Z,23.36
2024-04-12T13:17:28.153Z,23.50
2024-04-12T13:20:25.659Z,23.47
2024-04-12T13:23:17.155Z,23.00
2024-04-12T13:29:21.497Z,22.72
2024-04-12T13:32:17.513Z,22.46
2024-04-12T13:35:39.540Z,22.06
2024-04-12T13:38:51.271Z,21.86
2024-04-12T13:42:15.373Z,21.78
2024-04-12T13:45:29.814Z,21.80
2024-04-12T13:48:52.717Z,21.91
2024-04-12T13:55:27.831Z,22.17
2024-04-12T14:02:11.496Z,22.32
2024-04-12T14:05:04.889Z,22.32
2024-04-12T14:08:30.504Z,22.32
2024-04-12T14:11:09.325Z,22.22
2024-04-12T14:13:47.529Z,22.00
2024-04-12T14:17:08.427Z,21.69
2024-04-12T14:19:41.340Z,21.56
2024-04-12T14:22:26.836Z,21.39
2024-04-12T14:25:14.139Z,21.34
2024-04-12T14:28:21.865Z,21.34
2024-04-12T14:30:59.315Z,21.41
2024-04-12T14:33:55.238Z,21.42
2024-04-12T14:36:58.880Z,21.10
2024-04-12T14:40:02.710Z,20.68
2024-04-12T14:42:53.848Z,20.36
2024-04-12T14:45:55.797Z,20.16
2024-04-12T14:49:17.134Z,19.97
2024-04-12T14:52:29.171Z,19.82
2024-04-12T14:55:20.785Z,19.78
2024-04-12T14:57:53.597Z,19.88
2024-04-12T15:00:57.960Z,19.91
2024-04-12T15:04:03.566Z,19.90
2024-04-12T15:07:53.172Z,19.94
2024-04-12T15:10:44.792Z,20.08
2024-04-12T15:13:50.318Z,19.99
2024-04-12T15:16:44.100Z,19.84
2024-04-12T15:20:25.203Z,19.74
2024-04-12T15:23:40.665Z,19.61
2024-04-12T15:26:57.497Z,19.47
2024-04-12T15:30:21.995Z,19.37
2024-04-12T15:33:19.205Z,19.28
2024-04-12T15:36:37.397Z,19.11
2024-04-12T15:39:40.437Z,19.02
2024-04-12T15:42:49.768Z,18.99
2024-04-12T15:46:05.298Z,18.89
2024-04-12T15:48:53.423Z,18.73
2024-04-12T15:51:45.384Z,18.59
2024-04-12T15:54:53.933Z,18.45
2024-04-12T15:57:51.152Z,18.34
2024-04-12T16:01:19.081Z,18.28
2024-04-12T16:04:20.971Z,18.25
2024-04-12T16:07:23.484Z,18.17
2024-04-12T16:10:40.293Z,17.93
2024-04-12T16:13:51.201Z,17.66
2024-04-12T16:16:31.115Z,17.45
2024-04-12T16:19:08.211Z,17.33
2024-04-12T16:22:10.176Z,17.20
2024-04-12T16:24:42.848Z,17.01
2024-04-12T16:27:23.593Z,16.83
2024-04-12T16:30:10.069Z,16.67
2024-04-12T16:32:54.730Z,16.44
2024-04-12T16:35:36.063Z,16.17
2024-04-12T16:38:25.343Z,15.93
2024-04-12T16:41:01.988Z,15.73
2024-04-12T16:43:43.164Z,15.59
2024-04-12T16:46:48.949Z,15.44
2024-04-12T16:49:37.135Z,15.34
2024-04-12T16:52:32.619Z,15.32
2024-04-12T16:55:30.483Z,15.34
2024-04-12T16:58:10.937Z,15.33
2024-04-12T17:01:00.119Z,15.29
2024-04-12T17:03:45.809Z,15.20
2024-04-12T17:07:05.782Z,15.01
2024-04-12T17:10:23.150Z,14.77
2024-04-12T17:13:09.123Z,14.56
2024-04-12T17:15:47.318Z,14.38
2024-04-12T17:18:35.439Z,14.22
2024-04-12T17:21:29.757Z,14.11
2024-04-12T17:24:16.518Z,14.02
2024-04-12T17:26:56.926Z,13.96
2024-04-12T17:29:58.401Z,13.84
2024-04-12T17:33:06.890Z,13.73
2024-04-12T17:36:12.160Z,13.58
2024-04-12T17:38:50.077Z,13.48
2024-04-12T17:41:37.887Z,13.35
2024-04-12T17:44:39.129Z,13.24
2024-04-12T17:47:19.453Z,13.14
2024-04-12T17:49:56.270Z,13.11
2024-04-12T17:52:43.813Z,13.15
2024-04-12T17:55:32.481Z,13.17
2024-04-12T17:58:43.959Z,13.19
2024-04-12T18:01:47.922Z,13.18
2024-04-12T18:04:28.442Z,13.17
2024-04-12T18:07:10.126Z,13.15
2024-04-12T18:09:45.476Z,13.10
2024-04-12T18:12:27.865Z,12.97
2024-04-12T18:15:07.619Z,12.86
2024-04-12T18:17:49.860Z,12.72
2024-04-12T18:20:43.697Z,12.54
2024-04-12T18:23:22.157Z,12.40
2024-04-12T18:25:59.916Z,12.31
2024-04-12T18:28:36.195Z,12.24
2024-04-12T18:31:23.402Z,12.19
2024-04-12T18:33:59.841Z,12.13
2024-04-12T18:37:03.025Z,12.09
2024-04-12T18:39:59.890Z,12.08
2024-04-12T18:42:51.335Z,12.11
2024-04-12T18:46:04.025Z,12.13
2024-04-12T18:48:48.358Z,12.17
2024-04-12T18:51:23.340Z,12.15
2024-04-12T18:53:55.307Z,12.04
2024-04-12T18:56:26.243Z,11.91
2024-04-12T18:59:11.221Z,11.81
2024-04-12T19:01:53.037Z,11.68
2024-04-12T19:04:25.436Z,11.55
2024-04-12T19:07:29.496Z,11.46
2024-04-12T19:10:06.696Z,11.34
2024-04-12T19:12:40.705Z,11.24
2024-04-12T19:15:16.423Z,11.15
2024-04-12T19:17:53.392Z,11.05
2024-04-12T19:21:00.924Z,11.04
2024-04-12T19:23:54.488Z,11.08
2024-04-12T19:26:29.772Z,11.09
2024-04-12T19:29:43.717Z,11.08
2024-04-12T19:32:18.321Z,11.08
2024-04-12T19:35:00.599Z,11.06
2024-04-12T19:38:13.729Z,11.08
2024-04-12T19:40:54.125Z,11.02
2024-04-12T19:43:35.226Z,10.99
2024-04-12T19:46:16.270Z,10.96
2024-04-12T19:48:53.586Z,10.95
2024-04-12T19:55:58.150Z,10.85
2024-04-12T19:59:33.973Z,10.80
2024-04-12T20:02:47.534Z,10.73
2024-04-12T20:06:09.634Z,10.66
2024-04-12T20:08:38.951Z,10.61
2024-04-12T20:11:33.092Z,10.57
2024-04-12T20:14:32.411Z,10.56
2024-04-12T20:20:43.970Z,10.53
2024-04-12T20:26:42.159Z,10.55
2024-04-12T20:29:18.943Z,10.56
2024-04-12T20:32:07.718Z,10.58
2024-04-12T20:35:07.007Z,10.58
2024-04-12T20:37:47.271Z,10.59
2024-04-12T20:40:21.760Z,10.61
2024-04-12T20:43:01.650Z,10.62
2024-04-12T20:45:45.288Z,10.62
2024-04-12T20:48:18.917Z,10.61
2024-04-12T20:50:59.317Z,10.58
2024-04-12T20:53:33.769Z,10.56
2024-04-12T20:56:02.735Z,10.54
2024-04-12T20:58:35.759Z,10.53
2024-04-12T21:01:05.565Z,10.52
2024-04-12T21:03:39.443Z,10.48
2024-04-12T21:06:10.532Z,10.43
2024-04-12T21:08:44.103Z,10.41
2024-04-12T21:11:22.221Z,10.39
2024-04-12T21:14:07.589Z,10.35
2024-04-12T21:16:41.692Z,10.29
2024-04-12T21:19:13.625Z,10.25
2024-04-12T21:21:58.741Z,10.21
2024-04-12T21:24:31.621Z,10.22
2024-04-12T21:27:04.121Z,10.23
2024-04-12T21:29:35.291Z,10.22
2024-04-12T21:32:05.493Z,10.21
2024-04-12T21:34:40.301Z,10.20
2024-04-12T21:37:11.135Z,10.20
2024-04-12T21:39:52.237Z,10.23
2024-04-12T21:42:25.567Z,10.27
2024-04-12T21:45:00.535Z,10.31
2024-04-12T21:47:29.010Z,10.33
2024-04-12T21:50:09.699Z,10.29
2024-04-12T21:52:54.692Z,10.19
2024-04-12T21:55:31.447Z,10.06
2024-04-12T21:58:08.015Z,9.94
2024-04-12T22:00:43.990Z,9.84
2024-04-12T22:03:19.241Z,9.75
2024-04-12T22:05:58.294Z,9.67
2024-04-12T22:08:37.242Z,9.60
2024-04-12T22:11:25.910Z,9.52
2024-04-12T22:14:01.635Z,9.39
2024-04-12T22:16:49.896Z,9.27
2024-04-12T22:19:32.855Z,9.23
2024-04-12T22:22:06.439Z,9.25
2024-04-12T22:24:36.404Z,9.28
2024-04-12T22:27:08.136Z,9.28
2024-04-12T22:29:41.285Z,9.25
2024-04-12T22:32:14.428Z,9.23
2024-04-12T22:34:45.254Z,9.23
2024-04-12T22:37:19.420Z,9.23
2024-04-12T22:39:59.611Z,9.22
2024-04-12T22:42:30.370Z,9.22
2024-04-12T22:45:03.552Z,9.19
2024-04-12T22:47:50.968Z,9.12
2024-04-12T22:50:33.186Z,9.04
2024-04-12T22:53:22.361Z,9.01
2024-04-12T22:55:50.415Z,9.01
2024-04-12T22:58:22.677Z,9.04
2024-04-12T23:01:01.032Z,9.08
2024-04-12T23:03:34.288Z,9.11
2024-04-12T23:06:20.648Z,9.11
2024-04-12T23:09:04.377Z,9.13
2024-04-12T23:11:37.846Z,9.10
2024-04-12T23:14:19.129Z,9.02
2024-04-12T23:16:51.656Z,8.91
2024-04-12T23:19:24.734Z,8.82
2024-04-12T23:22:17.332Z,8.76
2024-04-12T23:24:51.474Z,8.62
2024-04-12T23:27:29.654Z,8.49
2024-04-12T23:30:13.578Z,8.36
2024-04-12T23:32:59.865Z,8.22
2024-04-12T23:35:34.324Z,8.12
2024-04-12T23:38:07.725Z,8.04
2024-04-12T23:43:48.665Z,7.89
2024-04-12T23:46:33.170Z,7.85
2024-04-12T23:49:21.871Z,7.82
2024-04-12T23:52:02.365Z,7.80
2024-04-12T23:54:39.061Z,7.76
2024-04-12T23:57:23.051Z,7.68
2024-04-12T23:59:56.305Z,7.58
